createdAt,value
2023-02-17T00:00:29.218Z,1.8
2023-02-17T00:01:32.596Z,2.5
2023-02-17T00:02:30.218Z,1.5
2023-02-17T00:03:30.392Z,1.6
2023-02-17T00:04:32.417Z,2.1
2023-02-17T00:05:30.985Z,2.2
2023-02-17T00:06:31.755Z,2.4
2023-02-17T00:07:32.740Z,1.5
2023-02-17T00:08:32.036Z,1.7
2023-02-17T00:09:32.353Z,2.2
2023-02-17T00:10:32.873Z,1.4
2023-02-17T00:11:32.964Z,2.1
2023-02-17T00:12:33.702Z,1.7
2023-02-17T00:13:34.024Z,2.1
2023-02-17T00:14:34.115Z,1.8
2023-02-17T00:15:34.481Z,1.4
2023-02-17T00:16:34.680Z,1.5
2023-02-17T00:17:35.162Z,1.6
2023-02-17T00:18:35.386Z,2.6
2023-02-17T00:19:35.689Z,1.8
2023-02-17T00:20:36.092Z,1.8
2023-02-17T00:21:36.330Z,1.8
2023-02-17T00:22:36.736Z,2.1
2023-02-17T00:23:37.044Z,2.3
2023-02-17T00:24:40.838Z,2.1
2023-02-17T00:25:39.219Z,2
2023-02-17T00:26:38.609Z,2.2
2023-02-17T00:27:39.022Z,2
2023-02-17T00:28:39.342Z,2.3
2023-02-17T00:29:39.645Z,2
2023-02-17T00:30:39.967Z,2
2023-02-17T00:31:40.525Z,1.8
2023-02-17T00:32:40.442Z,2.6
2023-02-17T00:33:41.120Z,2.2
2023-02-17T00:34:41.215Z,2
2023-02-17T00:35:41.738Z,1.8
2023-02-17T00:36:41.838Z,1.7
2023-02-17T00:37:42.281Z,1.8
2023-02-17T00:38:43.098Z,1.8
2023-02-17T00:39:42.977Z,1.7
2023-02-17T00:40:43.418Z,2.2
2023-02-17T00:41:44.454Z,2.2
2023-02-17T00:42:44.039Z,1.7
2023-02-17T00:43:44.663Z,2.6
2023-02-17T00:44:44.557Z,2.4
2023-02-17T00:45:45.038Z,3
2023-02-17T00:46:46.787Z,2.8
2023-02-17T00:47:45.617Z,3.9
2023-02-17T00:48:47.127Z,2.2
2023-02-17T00:49:46.335Z,2.2
2023-02-17T00:50:47.050Z,1.8
2023-02-17T00:51:47.998Z,2.7
2023-02-17T00:52:47.381Z,2.7
2023-02-17T00:53:47.679Z,2.2
2023-02-17T00:54:47.928Z,4.8
2023-02-17T00:55:49.433Z,3.8
2023-02-17T00:56:48.739Z,2.8
2023-02-17T00:57:49.427Z,3
2023-02-17T00:58:49.375Z,2.6
2023-02-17T00:59:49.697Z,4.2
2023-02-17T01:00:49.998Z,3.3
2023-02-17T01:01:50.403Z,3.3
2023-02-17T01:02:50.829Z,1.8
2023-02-17T01:03:51.153Z,3.2
2023-02-17T01:04:51.592Z,2.4
2023-02-17T01:05:52.479Z,2.5
2023-02-17T01:06:52.099Z,2.2
2023-02-17T01:07:52.298Z,2.2
2023-02-17T01:08:53.750Z,2.1
2023-02-17T01:09:53.119Z,2.7
2023-02-17T01:10:53.956Z,2.7
2023-02-17T01:11:53.750Z,2.4
2023-02-17T01:12:54.178Z,2.2
2023-02-17T01:13:56.014Z,2.6
2023-02-17T01:14:54.790Z,2.6
2023-02-17T01:15:55.295Z,2.4
2023-02-17T01:16:55.377Z,2.5
2023-02-17T01:17:55.740Z,2.4
2023-02-17T01:18:56.444Z,2.2
2023-02-17T01:19:57.085Z,1.9
2023-02-17T01:20:56.774Z,2.2
2023-02-17T01:21:57.002Z,1.7
2023-02-17T01:22:57.522Z,2.1
2023-02-17T01:24:00.306Z,2.3
2023-02-17T01:24:58.043Z,1.8
2023-02-17T01:25:58.535Z,2.6
2023-02-17T01:26:58.777Z,2.1
2023-02-17T01:27:59.079Z,2.1
2023-02-17T01:28:59.602Z,2.3
2023-02-17T01:29:59.822Z,2.6
2023-02-17T01:31:06.356Z,1.8
2023-02-17T01:32:04.418Z,3.7
2023-02-17T01:33:04.129Z,2.2
2023-02-17T01:34:04.972Z,2.6
2023-02-17T01:35:05.352Z,2.1
2023-02-17T01:36:07.841Z,2
2023-02-17T01:37:05.387Z,2.1
2023-02-17T01:38:06.038Z,3.8
2023-02-17T01:39:06.931Z,2.3
2023-02-17T01:40:07.870Z,1.8
2023-02-17T01:41:08.071Z,2.2
2023-02-17T01:42:12.583Z,2.1
2023-02-17T01:43:16.283Z,2.3
2023-02-17T01:44:19.767Z,2.5
2023-02-17T01:46:20.103Z,2.5
2023-02-17T01:47:20.083Z,2
2023-02-17T01:49:28.594Z,2.5
2023-02-17T01:50:31.985Z,2.3
2023-02-17T01:51:34.457Z,2.2
2023-02-17T01:52:31.909Z,2.2
2023-02-17T01:55:41.861Z,2.1
2023-02-17T01:56:43.617Z,2.7
2023-02-17T01:57:43.522Z,2.2
2023-02-17T01:58:46.583Z,3.6
2023-02-17T01:59:45.259Z,2.6
2023-02-17T02:00:44.556Z,2.5
2023-02-17T02:01:45.928Z,2.1
2023-02-17T02:02:49.314Z,2.1
2023-02-17T02:03:47.843Z,2.5
2023-02-17T02:04:51.396Z,2
2023-02-17T02:05:49.496Z,2
2023-02-17T02:06:49.214Z,2.5
2023-02-17T02:07:52.072Z,1.9
2023-02-17T02:09:54.535Z,1.8
2023-02-17T02:10:51.881Z,2.6
2023-02-17T02:11:52.610Z,2.3
2023-02-17T02:12:52.715Z,2.1
2023-02-17T02:13:53.552Z,2.5
2023-02-17T02:14:58.156Z,2.2
2023-02-17T02:40:02.838Z,3.2
2023-02-17T02:42:10.013Z,2.8
2023-02-17T02:43:07.870Z,3.7
2023-02-17T02:44:09.727Z,2.7
2023-02-17T02:45:10.452Z,2.4
2023-02-17T02:46:09.179Z,2.3
2023-02-17T02:48:13.746Z,2.7
2023-02-17T02:49:14.166Z,2.1
2023-02-17T03:09:14.723Z,2.3
2023-02-17T03:10:13.896Z,2
2023-02-17T03:11:13.594Z,2.4
2023-02-17T03:12:12.878Z,2.4
2023-02-17T03:13:13.100Z,2.6
2023-02-17T03:14:16.069Z,2.2
2023-02-17T03:16:16.508Z,2.4
2023-02-17T03:17:17.104Z,2.2
2023-02-17T03:18:18.253Z,1.8
2023-02-17T03:19:19.775Z,2.7
2023-02-17T03:20:18.058Z,1.7
2023-02-17T03:21:18.370Z,2
2023-02-17T03:22:29.016Z,2.2
2023-02-17T03:23:21.652Z,2.3
2023-02-17T03:24:21.857Z,2.3
2023-02-17T03:25:22.594Z,2
2023-02-17T03:26:22.810Z,2.1
2023-02-17T03:27:22.699Z,2.2
2023-02-17T03:28:23.015Z,1.6
2023-02-17T03:29:23.332Z,2
2023-02-17T03:30:23.874Z,2.2
2023-02-17T03:31:24.256Z,1.9
2023-02-17T03:32:24.965Z,2
2023-02-17T03:33:24.690Z,2.7
2023-02-17T03:34:25.217Z,2.3
2023-02-17T03:35:25.420Z,2.4
2023-02-17T03:36:25.934Z,2.1
2023-02-17T03:37:26.164Z,2.8
2023-02-17T03:38:26.567Z,1.7
2023-02-17T03:39:26.873Z,1.9
2023-02-17T03:40:27.387Z,2.2
2023-02-17T03:41:27.514Z,1.7
2023-02-17T03:42:28.025Z,1.6
2023-02-17T03:43:28.137Z,1.8
2023-02-17T03:44:28.550Z,2.4
2023-02-17T03:45:28.763Z,2
2023-02-17T03:46:29.402Z,3.1
2023-02-17T03:47:29.583Z,2
2023-02-17T03:48:30.121Z,3
2023-02-17T03:49:30.441Z,2
2023-02-17T03:50:31.348Z,1.9
2023-02-17T03:51:30.951Z,2.3
2023-02-17T03:52:31.148Z,1.8
2023-02-17T03:53:31.489Z,1.9
2023-02-17T03:54:31.791Z,1.8
2023-02-17T03:55:32.090Z,1.9
2023-02-17T03:56:32.903Z,2.1
2023-02-17T03:57:32.837Z,2.7
2023-02-17T03:58:33.349Z,2.5
2023-02-17T03:59:33.665Z,1.8
2023-02-17T04:00:33.886Z,1.7
2023-02-17T04:01:34.866Z,2.2
2023-02-17T04:02:34.395Z,2.6
2023-02-17T04:03:35.653Z,2.6
2023-02-17T04:04:35.526Z,2.7
2023-02-17T04:05:35.442Z,2.1
2023-02-17T04:06:35.980Z,2.3
2023-02-17T04:07:36.067Z,2.1
2023-02-17T04:08:37.299Z,1.6
2023-02-17T04:09:36.804Z,2.1
2023-02-17T04:10:37.113Z,1.8
2023-02-17T04:11:37.511Z,3
2023-02-17T04:12:37.741Z,2.1
2023-02-17T04:13:38.682Z,2.6
2023-02-17T04:14:38.584Z,1.8
2023-02-17T04:15:38.906Z,3.1
2023-02-17T04:16:39.198Z,3.5
2023-02-17T04:17:39.517Z,3.9
2023-02-17T04:18:39.820Z,3.4
2023-02-17T04:19:40.140Z,6.3
2023-02-17T04:20:40.763Z,3.6
2023-02-17T04:21:40.881Z,2.3
2023-02-17T04:22:41.093Z,2.6
2023-02-17T04:23:41.703Z,1.8
2023-02-17T04:24:42.030Z,3
2023-02-17T04:25:42.956Z,2.2
2023-02-17T04:26:42.672Z,1.9
2023-02-17T04:27:42.859Z,2.1
2023-02-17T04:28:43.479Z,2.6
2023-02-17T04:29:43.484Z,2.3
2023-02-17T04:30:48.280Z,3.3
2023-02-17T04:31:46.123Z,2.8
2023-02-17T04:32:46.168Z,2.3
2023-02-17T04:33:46.380Z,2.1
2023-02-17T04:34:46.701Z,1.8
2023-02-17T04:35:47.538Z,2.2
2023-02-17T04:36:47.544Z,2.3
2023-02-17T04:37:47.824Z,2
2023-02-17T04:38:48.252Z,1.9
2023-02-17T04:39:48.365Z,2.4
2023-02-17T04:40:49.079Z,3
2023-02-17T04:41:49.403Z,2.4
2023-02-17T04:42:49.511Z,2.5
2023-02-17T04:43:49.825Z,2.1
2023-02-17T04:44:50.135Z,2.2
2023-02-17T04:45:50.777Z,2.4
2023-02-17T04:46:50.872Z,2
2023-02-17T04:47:51.703Z,2.5
2023-02-17T04:48:51.506Z,3.2
2023-02-17T04:49:51.702Z,2.1
2023-02-17T04:50:52.451Z,2.7
2023-02-17T04:51:52.662Z,2.9
2023-02-17T04:52:52.965Z,3
2023-02-17T04:53:53.081Z,2.8
2023-02-17T04:54:53.450Z,2.2
2023-02-17T04:55:53.814Z,2.3
2023-02-17T04:56:54.192Z,2.9
2023-02-17T04:57:55.025Z,2.6
2023-02-17T04:58:54.731Z,1.9
2023-02-17T04:59:55.149Z,2.3
2023-02-17T05:00:58.651Z,2.7
2023-02-17T05:01:56.292Z,3.4
2023-02-17T05:02:56.711Z,2.3
2023-02-17T05:03:56.861Z,2.7
2023-02-17T05:04:57.159Z,2.4
2023-02-17T05:05:57.848Z,3.9
2023-02-17T05:06:57.974Z,2.9
2023-02-17T05:07:58.481Z,2.7
2023-02-17T05:08:58.900Z,2.9
2023-02-17T05:09:58.896Z,2.1
2023-02-17T05:10:59.215Z,2.2
2023-02-17T05:11:59.531Z,2.3
2023-02-17T05:12:59.843Z,2.2
2023-02-17T05:14:00.687Z,1.9
2023-02-17T05:15:00.377Z,2.1
2023-02-17T05:16:00.845Z,2.4
2023-02-17T05:17:01.295Z,1.9
2023-02-17T05:18:01.542Z,2.1
2023-02-17T05:19:01.719Z,2.1
2023-02-17T05:20:03.061Z,2.9
2023-02-17T05:21:02.605Z,2.9
2023-02-17T05:22:03.187Z,2
2023-02-17T05:23:03.181Z,3
2023-02-17T05:24:03.802Z,2.9
2023-02-17T05:25:04.561Z,4.3
2023-02-17T05:26:05.231Z,4.1
2023-02-17T05:27:04.554Z,3.2
2023-02-17T05:28:04.759Z,2.3
2023-02-17T05:29:05.168Z,3.5
2023-02-17T05:30:06.838Z,3.5
2023-02-17T05:31:06.049Z,2.6
2023-02-17T05:32:06.256Z,4.3
2023-02-17T05:33:06.421Z,2.2
2023-02-17T05:34:07.042Z,2.6
2023-02-17T05:35:07.780Z,2.8
2023-02-17T05:36:09.618Z,2.3
2023-02-17T05:37:07.899Z,4.9
2023-02-17T05:38:08.218Z,4.5
2023-02-17T05:39:08.412Z,3
2023-02-17T05:40:10.385Z,2.4
2023-02-17T05:41:09.568Z,3.6
2023-02-17T05:42:09.650Z,2.9
2023-02-17T05:43:09.974Z,3.1
2023-02-17T05:44:10.183Z,1.7
2023-02-17T05:45:10.718Z,2.6
2023-02-17T05:46:10.996Z,2.7
2023-02-17T05:47:11.432Z,2.5
2023-02-17T05:48:11.664Z,2
2023-02-17T05:49:11.753Z,2
2023-02-17T05:50:12.486Z,2
2023-02-17T05:51:12.588Z,2.4
2023-02-17T05:52:12.996Z,1.6
2023-02-17T05:53:13.125Z,2.9
2023-02-17T05:54:13.420Z,2.8
2023-02-17T05:55:14.146Z,2
2023-02-17T05:56:14.245Z,2
2023-02-17T05:57:14.476Z,2
2023-02-17T05:58:14.782Z,3.3
2023-02-17T05:59:15.383Z,3.1
2023-02-17T06:00:16.340Z,2.3
2023-02-17T06:01:15.728Z,2.4
2023-02-17T06:02:16.240Z,2
2023-02-17T06:03:16.379Z,2.6
2023-02-17T06:04:16.943Z,2.2
2023-02-17T06:05:17.292Z,2.6
2023-02-17T06:06:17.375Z,1.7
2023-02-17T06:07:17.807Z,1.9
2023-02-17T06:08:18.238Z,2.2
2023-02-17T06:09:18.451Z,2.1
2023-02-17T06:10:19.250Z,1.9
2023-02-17T06:11:19.065Z,2.2
2023-02-17T06:12:19.471Z,2.2
2023-02-17T06:13:20.115Z,1.7
2023-02-17T06:14:20.100Z,1.9
2023-02-17T06:15:20.458Z,2.6
2023-02-17T06:16:20.878Z,2.4
2023-02-17T06:17:21.165Z,1.6
2023-02-17T06:18:21.671Z,2.5
2023-02-17T06:19:21.882Z,2
2023-02-17T06:20:22.281Z,2
2023-02-17T06:21:22.397Z,2.7
2023-02-17T06:22:22.936Z,3
2023-02-17T06:23:24.146Z,1.9
2023-02-17T06:24:24.479Z,2.5
2023-02-17T06:25:23.548Z,2.9
2023-02-17T06:26:24.122Z,3
2023-02-17T06:27:25.145Z,3
2023-02-17T06:28:24.821Z,2.8
2023-02-17T06:29:25.025Z,3
2023-02-17T06:30:25.478Z,2.4
2023-02-17T06:31:26.099Z,2.5
2023-02-17T06:32:26.375Z,3.3
2023-02-17T06:33:26.589Z,2.5
2023-02-17T06:34:26.896Z,2.2
2023-02-17T06:35:27.215Z,2
2023-02-17T06:36:27.324Z,2.6
2023-02-17T06:37:27.839Z,2.2
2023-02-17T06:38:28.506Z,2
2023-02-17T06:39:28.396Z,2.5
2023-02-17T06:40:28.934Z,2.1
2023-02-17T06:41:29.600Z,2.4
2023-02-17T06:42:29.613Z,2.6
2023-02-17T06:43:29.919Z,1.9
2023-02-17T06:44:30.241Z,2.6
2023-02-17T06:45:30.558Z,2.6
2023-02-17T06:46:31.085Z,1.7
2023-02-17T06:47:31.167Z,2.9
2023-02-17T06:48:31.494Z,2.6
2023-02-17T06:49:31.601Z,2.2
2023-02-17T06:50:31.941Z,3.9
2023-02-17T06:51:32.442Z,2.4
2023-02-17T06:52:33.269Z,2.4
2023-02-17T06:53:33.071Z,3
2023-02-17T06:54:33.660Z,3.1
2023-02-17T06:55:33.691Z,2.5
2023-02-17T06:56:34.206Z,2.6
2023-02-17T06:57:34.419Z,2
2023-02-17T06:58:36.176Z,2.4
2023-02-17T06:59:35.150Z,2.6
2023-02-17T07:00:35.344Z,2.2
2023-02-17T07:01:35.885Z,2.8
2023-02-17T07:02:38.981Z,3.4
2023-02-17T07:03:36.505Z,2.3
2023-02-17T07:04:36.830Z,2.7
2023-02-17T07:05:37.873Z,2.3
2023-02-17T07:06:37.692Z,2.2
2023-02-17T07:07:39.008Z,1.9
2023-02-17T07:08:38.284Z,2.1
2023-02-17T07:09:39.417Z,1.8
2023-02-17T07:10:38.912Z,2.2
2023-02-17T07:11:39.227Z,1.8
2023-02-17T07:12:39.956Z,2.3
2023-02-17T07:13:40.028Z,2.1
2023-02-17T07:14:40.267Z,2.1
2023-02-17T07:15:40.588Z,1.6
2023-02-17T07:16:40.739Z,1.7
2023-02-17T07:17:41.321Z,1.6
2023-02-17T07:18:42.145Z,2
2023-02-17T07:19:41.942Z,2
2023-02-17T07:20:42.162Z,2.5
2023-02-17T07:21:42.876Z,2.3
2023-02-17T07:22:42.980Z,1.7
2023-02-17T07:23:43.315Z,1.9
2023-02-17T07:24:43.622Z,2.2
2023-02-17T07:25:43.824Z,2.3
2023-02-17T07:26:44.657Z,1.8
2023-02-17T07:27:44.678Z,1.9
2023-02-17T07:28:44.979Z,2.3
2023-02-17T07:29:45.189Z,2
2023-02-17T07:30:45.543Z,3.3
2023-02-17T07:31:45.963Z,3.1
2023-02-17T07:32:46.343Z,2.8
2023-02-17T07:33:46.536Z,2.6
2023-02-17T07:34:47.193Z,2.1
2023-02-17T07:35:47.288Z,1.6
2023-02-17T07:36:47.673Z,1.8
2023-02-17T07:37:47.997Z,2
2023-02-17T07:38:48.857Z,1.8
2023-02-17T07:39:49.136Z,2
2023-02-17T07:40:49.048Z,2.3
2023-02-17T07:41:49.880Z,1.7
2023-02-17T07:42:49.653Z,2.2
2023-02-17T07:43:53.366Z,2.3
2023-02-17T07:44:50.728Z,2.1
2023-02-17T07:45:55.299Z,2
2023-02-17T07:46:53.485Z,1.8
2023-02-17T07:47:53.497Z,1.7
2023-02-17T07:48:54.110Z,2.1
2023-02-17T07:49:54.225Z,1.7
2023-02-17T07:50:54.643Z,1.8
2023-02-17T07:51:54.857Z,1.8
2023-02-17T07:52:55.272Z,2
2023-02-17T07:53:55.587Z,1.6
2023-02-17T07:54:56.104Z,1.6
2023-02-17T07:55:56.317Z,2.3
2023-02-17T07:56:56.527Z,1.6
2023-02-17T07:57:57.143Z,1.8
2023-02-17T07:58:57.459Z,1.6
2023-02-17T07:59:57.678Z,2
2023-02-17T08:00:57.974Z,2.1
2023-02-17T08:01:58.271Z,2
2023-02-17T08:02:59.336Z,1.6
2023-02-17T08:03:58.963Z,2.1
2023-02-17T08:04:59.439Z,2
2023-02-17T08:05:59.765Z,1.6
2023-02-17T08:07:00.097Z,2.1
2023-02-17T08:08:00.376Z,1.6
2023-02-17T08:09:00.594Z,2.1
2023-02-17T08:10:00.913Z,1.7
2023-02-17T08:11:02.158Z,1.8
2023-02-17T08:12:01.745Z,1.7
2023-02-17T08:13:02.166Z,1.8
2023-02-17T08:14:02.776Z,1.8
2023-02-17T08:15:03.114Z,1.9
2023-02-17T08:16:03.202Z,2
2023-02-17T08:17:03.407Z,1.6
2023-02-17T08:18:03.831Z,1.6
2023-02-17T08:19:06.076Z,1.5
2023-02-17T08:20:09.110Z,1.8
2023-02-17T08:21:07.104Z,1.6
2023-02-17T08:22:07.048Z,1.4
2023-02-17T08:23:07.658Z,1.6
2023-02-17T08:24:08.274Z,2
2023-02-17T08:25:08.583Z,1.9
2023-02-17T08:26:08.870Z,1.6
2023-02-17T08:27:08.888Z,1.7
2023-02-17T08:28:11.578Z,2.1
2023-02-17T08:29:09.642Z,2.2
2023-02-17T08:30:11.115Z,1.9
2023-02-17T08:31:17.539Z,1.8
2023-02-17T08:32:17.502Z,1.9
2023-02-17T08:33:15.406Z,3.1
2023-02-17T08:34:15.726Z,4.5
2023-02-17T08:35:16.227Z,5.9
2023-02-17T08:36:17.583Z,5.8
2023-02-17T08:37:16.943Z,3.6
2023-02-17T08:38:17.223Z,2.7
2023-02-17T08:39:18.500Z,3.9
2023-02-17T08:40:19.446Z,1.7
2023-02-17T08:41:21.612Z,1.6
2023-02-17T08:42:20.410Z,1.6
2023-02-17T08:43:19.460Z,1.4
2023-02-17T08:44:20.492Z,1.3
2023-02-17T08:45:20.396Z,1.3
2023-02-17T08:46:21.058Z,1.4
2023-02-17T08:47:20.822Z,1.4
2023-02-17T08:48:21.192Z,1.5
2023-02-17T08:49:24.728Z,1.4
2023-02-17T08:50:22.525Z,1.7
2023-02-17T08:51:24.222Z,1.9
2023-02-17T08:52:23.007Z,2.5
2023-02-17T08:53:23.426Z,1.4
2023-02-17T08:54:23.499Z,1.4
2023-02-17T08:55:24.247Z,1.5
2023-02-17T08:56:26.137Z,1.5
2023-02-17T08:57:24.581Z,2
2023-02-17T08:58:25.381Z,1.3
2023-02-17T08:59:25.417Z,2.2
2023-02-17T09:00:25.894Z,1.7
2023-02-17T09:01:26.399Z,1.2
2023-02-17T09:02:26.476Z,1.3
2023-02-17T09:03:27.573Z,1.4
2023-02-17T09:04:27.227Z,1.2
2023-02-17T09:05:27.512Z,1.2
2023-02-17T09:06:39.365Z,1.5
2023-02-17T09:07:31.877Z,1.6
2023-02-17T09:08:32.942Z,1.4
2023-02-17T09:09:32.665Z,1.2
2023-02-17T09:10:32.947Z,1.4
2023-02-17T09:11:33.364Z,1.3
2023-02-17T09:12:33.693Z,1.4
2023-02-17T09:13:34.833Z,1.5
2023-02-17T09:14:34.752Z,1.8
2023-02-17T09:15:34.552Z,1.5
2023-02-17T09:16:35.767Z,3.5
2023-02-17T09:17:39.040Z,2.4
2023-02-17T09:18:36.685Z,1.5
2023-02-17T09:19:39.382Z,1.3
2023-02-17T09:20:38.053Z,1.4
2023-02-17T09:21:37.429Z,1.5
2023-02-17T09:22:38.039Z,1.2
2023-02-17T09:23:38.826Z,1.3
2023-02-17T09:24:38.776Z,1.3
2023-02-17T09:25:38.909Z,1.3
2023-02-17T09:26:39.503Z,1.3
2023-02-17T09:27:39.660Z,1.3
2023-02-17T09:28:40.435Z,1.1
2023-02-17T09:29:40.252Z,1.2
2023-02-17T09:30:41.151Z,1.6
2023-02-17T09:31:41.279Z,1.4
2023-02-17T09:32:42.458Z,1.4
2023-02-17T09:33:42.515Z,1.2
2023-02-17T09:34:42.162Z,2.1
2023-02-17T09:35:42.436Z,1.5
2023-02-17T09:36:42.815Z,1.5
2023-02-17T09:37:43.262Z,1.5
2023-02-17T09:38:43.922Z,1.3
2023-02-17T09:39:44.832Z,2.6
2023-02-17T09:40:48.088Z,1.7
2023-02-17T09:41:49.336Z,1.2
2023-02-17T09:42:48.244Z,1.3
2023-02-17T09:43:47.810Z,1.2
2023-02-17T09:44:52.234Z,1.2
2023-02-17T09:45:54.828Z,1.6
2023-02-17T09:47:04.471Z,1.2
2023-02-17T09:48:02.052Z,1.2
2023-02-17T09:49:03.629Z,1.3
2023-02-17T09:50:07.228Z,1.4
2023-02-17T09:51:17.271Z,1.3
2023-02-17T09:57:29.296Z,1.5
2023-02-17T09:58:33.510Z,1.8
2023-02-17T10:00:43.012Z,1.3
2023-02-17T10:01:37.136Z,1.4
2023-02-17T10:04:44.913Z,1.2
2023-02-17T10:06:49.268Z,1.2
2023-02-17T10:07:51.720Z,1.4
2023-02-17T10:13:01.024Z,1.4
2023-02-17T10:14:09.640Z,1.4
2023-02-17T10:15:15.653Z,1.5
2023-02-17T10:16:10.351Z,1.7
2023-02-17T10:20:25.833Z,1.3
2023-02-17T10:21:21.863Z,1.3
2023-02-17T10:22:22.051Z,1.4
2023-02-17T10:23:26.062Z,2.1
2023-02-17T10:24:25.132Z,2.8
2023-02-17T10:40:01.178Z,1.4
2023-02-17T10:41:05.700Z,1.3
2023-02-17T10:42:05.194Z,1.5
2023-02-17T10:43:09.487Z,1.4
2023-02-17T10:46:19.574Z,1.6
2023-02-17T10:47:18.228Z,1.6
2023-02-17T10:50:25.112Z,2.1
2023-02-17T10:53:29.256Z,1.7
2023-02-17T10:57:37.350Z,1.5
2023-02-17T10:58:44.114Z,1.9
2023-02-17T10:59:40.726Z,1.9
2023-02-17T11:00:38.599Z,1.8
2023-02-17T11:01:39.315Z,2.1
2023-02-17T11:02:44.316Z,1.7
2023-02-17T11:03:42.086Z,3
2023-02-17T11:04:43.753Z,2.6
2023-02-17T11:05:42.622Z,2
2023-02-17T11:06:48.612Z,2.4
2023-02-17T11:07:46.411Z,2.4
2023-02-17T11:08:51.847Z,2
2023-02-17T11:09:58.609Z,2
2023-02-17T11:11:01.385Z,2
2023-02-17T11:12:06.631Z,2
2023-02-17T11:12:55.649Z,1.6
2023-02-17T11:15:03.485Z,2.1
2023-02-17T11:16:01.474Z,2.3
2023-02-17T11:17:04.168Z,1.8
2023-02-17T11:18:09.649Z,1.6
2023-02-17T11:19:03.594Z,1.8
2023-02-17T11:21:11.580Z,2.2
2023-02-17T11:24:18.367Z,2.3
2023-02-17T11:25:27.183Z,2.4
2023-02-17T11:26:24.643Z,2.5
2023-02-17T11:27:25.859Z,2.6
2023-02-17T11:28:25.051Z,2
2023-02-17T11:29:24.204Z,2
2023-02-17T11:30:25.509Z,2.1
2023-02-17T11:31:27.347Z,2
2023-02-17T11:32:32.145Z,2.8
2023-02-17T11:33:36.857Z,2.2
2023-02-17T11:34:36.461Z,2.5
2023-02-17T11:36:39.963Z,3
2023-02-17T11:37:42.932Z,3.1
2023-02-17T11:39:46.630Z,3.2
2023-02-17T11:41:46.911Z,2
2023-02-17T11:43:57.920Z,2.1
2023-02-17T11:44:57.821Z,2.2
2023-02-17T12:40:41.709Z,2.1
2023-02-17T12:41:43.669Z,2
2023-02-17T12:42:49.907Z,1.7
2023-02-17T12:43:49.703Z,2.1
2023-02-17T12:45:00.070Z,2.1
2023-02-17T12:45:49.130Z,2.6
2023-02-17T12:46:53.311Z,4.2
2023-02-17T12:47:59.569Z,2
2023-02-17T12:50:03.090Z,3.3
2023-02-17T12:58:24.821Z,3.5
2023-02-17T12:59:34.464Z,7.6
2023-02-17T13:00:38.375Z,4.8
2023-02-17T13:01:32.697Z,5.2
2023-02-17T13:02:31.429Z,5.5
2023-02-17T13:03:36.153Z,11.7
2023-02-17T13:04:34.791Z,9.2
2023-02-17T13:09:45.829Z,2.6
2023-02-17T13:10:43.646Z,7.3
2023-02-17T13:11:43.885Z,7.1
2023-02-17T13:13:47.250Z,3.7
2023-02-17T13:15:48.625Z,1.8
2023-02-17T13:16:49.020Z,2
2023-02-17T13:18:54.256Z,2.4
2023-02-17T13:21:59.077Z,2.1
2023-02-17T13:25:04.633Z,2.3
2023-02-17T13:36:38.103Z,3.1
2023-02-17T13:38:35.531Z,1.7
2023-02-17T13:39:37.702Z,2.4
2023-02-17T13:40:40.141Z,5.5
2023-02-17T13:41:49.586Z,2.5
2023-02-17T13:42:44.572Z,6
2023-02-17T13:43:43.155Z,3.7
2023-02-17T13:44:45.914Z,3.2
2023-02-17T13:46:48.496Z,1.9
2023-02-17T13:47:50.346Z,1.6
2023-02-17T13:49:01.841Z,2.1
2023-02-17T13:49:53.940Z,1.3
2023-02-17T13:50:54.468Z,1.3
2023-02-17T13:51:52.126Z,1.3
2023-02-17T13:52:52.213Z,3.3
2023-02-17T13:53:53.254Z,1.7
2023-02-17T13:55:00.625Z,1.5
2023-02-17T13:56:04.398Z,1.7
2023-02-17T13:57:02.187Z,2.8
2023-02-17T13:58:02.278Z,2.2
2023-02-17T13:59:15.800Z,1.5
2023-02-17T14:01:17.715Z,3.5
2023-02-17T14:02:35.442Z,2.3
2023-02-17T14:04:22.185Z,6.3
2023-02-17T14:06:36.254Z,2.3
2023-02-17T14:07:28.770Z,6.9
2023-02-17T14:09:35.142Z,3.5
2023-02-17T14:10:33.392Z,6.4
2023-02-17T14:11:33.175Z,8.6
2023-02-17T14:12:33.415Z,5
2023-02-17T14:13:35.256Z,1.6
2023-02-17T14:14:37.515Z,1.5
2023-02-17T14:15:35.194Z,14.2
2023-02-17T14:16:41.113Z,8.8
2023-02-17T14:17:38.552Z,4.9
2023-02-17T14:18:41.432Z,3.6
2023-02-17T14:19:45.124Z,2.9
2023-02-17T14:20:42.773Z,1.7
2023-02-17T14:21:46.270Z,1.6
2023-02-17T14:22:50.848Z,2.5
2023-02-17T14:23:51.414Z,1.5
2023-02-17T14:25:50.417Z,5.2
2023-02-17T14:26:50.799Z,2.8
2023-02-17T14:27:51.146Z,2.1
2023-02-17T14:29:53.644Z,1.7
2023-02-17T14:30:54.311Z,2.5
2023-02-17T14:31:54.416Z,1.6
2023-02-17T14:33:59.250Z,4.2
2023-02-17T14:36:03.303Z,11.4
2023-02-17T14:39:09.172Z,3.2
2023-02-17T14:41:10.825Z,6.2
2023-02-17T14:42:11.475Z,6.2
2023-02-17T14:43:11.621Z,4.9
2023-02-17T14:44:12.020Z,3.7
2023-02-17T14:45:12.848Z,3
2023-02-17T14:46:12.946Z,4.2
2023-02-17T14:47:12.953Z,5.1
2023-02-17T14:48:13.266Z,10.3
2023-02-17T14:49:13.782Z,8.9
2023-02-17T14:50:14.723Z,6.1
2023-02-17T14:51:16.785Z,5.4
2023-02-17T14:54:26.863Z,8.5
2023-02-17T14:57:29.301Z,4.4
2023-02-17T14:58:30.441Z,9.8
2023-02-17T14:59:30.028Z,11.2
2023-02-17T15:00:30.965Z,6.6
2023-02-17T15:01:31.075Z,10.8
2023-02-17T15:02:31.390Z,9.5
2023-02-17T15:03:32.001Z,6.9
2023-02-17T15:04:31.751Z,8.9
2023-02-17T15:05:32.034Z,8
2023-02-17T15:07:34.802Z,8.6
2023-02-17T15:08:36.139Z,9.4
2023-02-17T15:09:35.225Z,7.6
2023-02-17T15:10:35.422Z,7.1
2023-02-17T15:11:36.260Z,10.1
2023-02-17T15:12:36.236Z,14.5
2023-02-17T15:13:36.580Z,18
2023-02-17T15:14:37.001Z,8
2023-02-17T15:15:37.214Z,4.3
2023-02-17T15:16:37.619Z,1.8
2023-02-17T15:17:37.810Z,5.8
2023-02-17T15:18:38.350Z,4.7
2023-02-17T15:19:38.663Z,4.6
2023-02-17T15:20:42.473Z,2.2
2023-02-17T15:21:45.439Z,3.6
2023-02-17T15:22:43.340Z,4.2
2023-02-17T15:23:43.312Z,5.2
2023-02-17T15:24:44.232Z,4.9
2023-02-17T15:25:44.858Z,5.5
2023-02-17T15:26:44.543Z,3.8
2023-02-17T15:27:45.170Z,2.4
2023-02-17T15:28:45.063Z,4.4
2023-02-17T15:29:45.252Z,2.9
2023-02-17T15:30:53.786Z,2
2023-02-17T15:31:47.517Z,1.6
2023-02-17T15:32:47.247Z,2.2
2023-02-17T15:33:58.417Z,1.9
2023-02-17T15:34:50.745Z,2
2023-02-17T15:35:53.626Z,2.2
2023-02-17T15:36:51.483Z,2.2
2023-02-17T15:37:52.834Z,2.1
2023-02-17T15:38:52.308Z,2.3
2023-02-17T15:39:52.620Z,1.8
2023-02-17T15:40:53.347Z,1.9
2023-02-17T15:41:56.423Z,1.7
2023-02-17T15:42:57.348Z,1.8
2023-02-17T15:43:58.478Z,1.9
2023-02-17T15:44:56.044Z,1.8
2023-02-17T15:45:56.131Z,1.8
2023-02-17T15:46:57.518Z,1.6
2023-02-17T15:48:07.741Z,1.8
2023-02-17T15:49:00.137Z,1.9
2023-02-17T15:50:00.657Z,2
2023-02-17T15:51:00.794Z,2.6
2023-02-17T15:52:01.170Z,2.3
2023-02-17T15:53:02.756Z,3.6
2023-02-17T15:54:01.736Z,2.8
2023-02-17T15:55:02.240Z,3.4
2023-02-17T15:56:02.661Z,2.4
2023-02-17T15:57:02.834Z,2.2
2023-02-17T15:58:04.721Z,2.1
2023-02-17T15:59:17.547Z,2.6
2023-02-17T16:00:06.596Z,2.5
2023-02-17T16:01:05.831Z,2.1
2023-02-17T16:02:21.046Z,2.4
2023-02-17T16:03:11.948Z,2.4
2023-02-17T16:04:14.296Z,3.7
2023-02-17T16:05:17.255Z,4.5
2023-02-17T16:06:14.582Z,6.4
2023-02-17T16:07:15.122Z,5.1
2023-02-17T16:08:15.538Z,2.3
2023-02-17T16:09:15.637Z,7.8
2023-02-17T16:10:19.652Z,5.5
2023-02-17T16:11:18.131Z,6.4
2023-02-17T16:12:20.265Z,3
2023-02-17T16:13:18.435Z,3.6
2023-02-17T16:15:22.875Z,4.3
2023-02-17T16:16:23.210Z,5
2023-02-17T16:17:20.720Z,3.1
2023-02-17T16:18:22.867Z,2.8
2023-02-17T16:19:21.457Z,4.1
2023-02-17T16:20:27.576Z,3.3
2023-02-17T16:21:25.163Z,3.7
2023-02-17T16:22:25.338Z,5.6
2023-02-17T16:23:25.772Z,5.5
2023-02-17T16:24:25.979Z,3.8
2023-02-17T16:25:28.531Z,4.3
2023-02-17T16:26:34.356Z,5.3
2023-02-17T16:27:26.936Z,4.6
2023-02-17T16:28:27.325Z,6.1
2023-02-17T16:29:27.760Z,6.1
2023-02-17T16:30:36.694Z,5.6
2023-02-17T16:31:29.337Z,3.9
2023-02-17T16:32:29.568Z,2.6
2023-02-17T16:33:30.038Z,3.7
2023-02-17T16:34:30.249Z,3.4
2023-02-17T16:35:32.112Z,3.2
2023-02-17T16:36:34.973Z,2.6
2023-02-17T16:37:32.634Z,4.7
2023-02-17T16:38:32.745Z,2.7
2023-02-17T16:39:33.271Z,2.2
2023-02-17T16:40:36.532Z,3.4
2023-02-17T16:41:33.885Z,4.3
2023-02-17T16:42:34.286Z,4.1
2023-02-17T16:43:34.612Z,2.3
2023-02-17T16:44:35.043Z,3.9
2023-02-17T16:45:35.389Z,3.4
2023-02-17T16:46:37.496Z,6.5
2023-02-17T16:47:37.308Z,3.7
2023-02-17T16:48:36.604Z,3.6
2023-02-17T16:49:38.033Z,2.4
2023-02-17T16:50:36.926Z,3.2
2023-02-17T16:51:37.437Z,5.5
2023-02-17T16:52:37.858Z,4.8
2023-02-17T16:53:38.061Z,2.9
2023-02-17T16:54:38.678Z,2.9
2023-02-17T16:55:38.988Z,3.6
2023-02-17T16:56:44.355Z,5.8
2023-02-17T16:57:43.096Z,7.1
2023-02-17T16:58:42.070Z,7.1
2023-02-17T16:59:42.394Z,8.9
2023-02-17T17:00:44.724Z,5.7
2023-02-17T17:01:43.437Z,9.9
2023-02-17T17:02:44.654Z,9
2023-02-17T17:03:44.263Z,9
2023-02-17T17:04:44.176Z,4.5
2023-02-17T17:05:45.007Z,8.7
2023-02-17T17:06:50.843Z,6
2023-02-17T17:07:49.014Z,6.1
2023-02-17T17:08:49.300Z,4.9
2023-02-17T17:10:14.316Z,7.6
2023-02-17T17:10:51.071Z,5.9
2023-02-17T17:11:51.791Z,8.2
2023-02-17T17:12:52.231Z,9.2
2023-02-17T17:13:52.824Z,8.8
2023-02-17T17:14:52.656Z,6.2
2023-02-17T17:15:53.038Z,7.1
2023-02-17T17:18:02.085Z,6.3
2023-02-17T17:18:54.602Z,5.9
2023-02-17T17:19:55.013Z,9.4
2023-02-17T17:20:55.232Z,6.4
2023-02-17T17:21:55.640Z,6.3
2023-02-17T17:22:55.862Z,12.7
2023-02-17T17:23:56.502Z,9.7
2023-02-17T17:24:56.481Z,7.5
2023-02-17T17:25:57.344Z,11.1
2023-02-17T17:26:57.223Z,7.6